createdAt,value
2022-08-03T00:00:17.735Z,99417.87
2022-08-03T00:03:10.384Z,99418.67
2022-08-03T00:06:05.109Z,99418.73
2022-08-03T00:08:58.432Z,99416.63
2022-08-03T00:11:50.840Z,99414.64
2022-08-03T00:14:44.454Z,99413.79
2022-08-03T00:17:52.341Z,99410.82
2022-08-03T00:20:46.085Z,99415.72
2022-08-03T00:23:51.837Z,99417.23
2022-08-03T00:26:47.352Z,99419.21
2022-08-03T00:29:59.488Z,99421.85
2022-08-03T00:32:54.926Z,99420.01
2022-08-03T00:35:51.041Z,99418.88
2022-08-03T00:38:43.380Z,99418.73
2022-08-03T00:41:35.672Z,99418.91
2022-08-03T00:44:27.909Z,99418.36
2022-08-03T00:47:20.043Z,99418.65
2022-08-03T00:50:13.860Z,99420.30
2022-08-03T00:53:07.942Z,99421.33
2022-08-03T00:56:01.431Z,99422.30
2022-08-03T00:58:58.146Z,99425.76
2022-08-03T01:01:50.394Z,99429.21
2022-08-03T01:04:42.887Z,99429.41
2022-08-03T01:07:47.335Z,99429.27
2022-08-03T01:10:50.202Z,99428.85
2022-08-03T01:14:04.288Z,99429.81
2022-08-03T01:17:03.580Z,99427.71
2022-08-03T01:19:55.625Z,99432.76
2022-08-03T01:23:11.944Z,99430.36
2022-08-03T01:26:07.393Z,99435.46
2022-08-03T01:29:10.952Z,99434.58
2022-08-03T01:32:53.556Z,99434.17
2022-08-03T01:35:27.954Z,99433.67
2022-08-03T01:38:25.798Z,99436.80
2022-08-03T01:41:22.655Z,99434.85
2022-08-03T01:44:29.827Z,99433.23
2022-08-03T01:47:23.531Z,99438.36
2022-08-03T01:50:17.012Z,99437.08
2022-08-03T01:53:14.884Z,99437.56
2022-08-03T01:56:09.979Z,99436.35
2022-08-03T01:59:04.568Z,99431.23
2022-08-03T02:02:27.740Z,99430.95
2022-08-03T02:05:13.166Z,99431.64
2022-08-03T02:08:08.967Z,99433.92
2022-08-03T02:11:03.491Z,99432.89
2022-08-03T02:13:57.882Z,99431.02
2022-08-03T02:16:44.582Z,99427.25
2022-08-03T02:19:38.048Z,99429.02
2022-08-03T02:22:26.183Z,99431.23
2022-08-03T02:25:19.608Z,99432.20
2022-08-03T02:28:18.654Z,99435.02
2022-08-03T02:31:19.188Z,99432.95
2022-08-03T02:34:17.796Z,99434.48
2022-08-03T02:37:11.842Z,99434.02
2022-08-03T02:40:09.128Z,99430.80
2022-08-03T02:43:06.568Z,99431.13
2022-08-03T02:45:58.943Z,99428.45
2022-08-03T02:48:53.322Z,99426.27
2022-08-03T02:51:48.589Z,99428.95
2022-08-03T02:54:41.872Z,99429.61
2022-08-03T02:57:36.347Z,99433.65
2022-08-03T03:00:28.054Z,99434.36
2022-08-03T03:03:22.030Z,99435.01
2022-08-03T03:06:15.238Z,99434.55
2022-08-03T03:09:07.896Z,99441.36
2022-08-03T03:12:00.710Z,99440.59
2022-08-03T03:14:53.038Z,99439.84
2022-08-03T03:17:46.695Z,99442.65
2022-08-03T03:20:42.403Z,99445.23
2022-08-03T03:23:36.499Z,99445.54
2022-08-03T03:26:29.172Z,99442.02
2022-08-03T03:29:22.343Z,99440.92
2022-08-03T03:31:54.636Z,99443.29
2022-08-03T03:34:47.531Z,99445.58
2022-08-03T03:37:40.213Z,99446.27
2022-08-03T03:40:32.653Z,99449.89
2022-08-03T03:43:26.227Z,99450.89
2022-08-03T03:46:18.530Z,99453.09
2022-08-03T03:49:11.782Z,99454.12
2022-08-03T03:52:04.481Z,99459.67
2022-08-03T03:55:00.829Z,99462.70
2022-08-03T03:57:53.621Z,99461.38
2022-08-03T04:00:46.561Z,99463.32
2022-08-03T04:03:39.766Z,99463.48
2022-08-03T04:07:04.608Z,99468.07
2022-08-03T04:10:16.433Z,99468.78
2022-08-03T04:13:11.135Z,99471.94
2022-08-03T04:16:04.622Z,99477.12
2022-08-03T04:19:03.191Z,99478.52
2022-08-03T04:22:00.069Z,99482.98
2022-08-03T04:24:56.810Z,99487.05
2022-08-03T04:28:19.700Z,99487.10
2022-08-03T04:31:09.560Z,99490.64
2022-08-03T04:34:03.191Z,99492.67
2022-08-03T04:37:01.175Z,99493.36
2022-08-03T04:39:51.253Z,99496.82
2022-08-03T04:42:45.469Z,99494.67
2022-08-03T04:45:40.071Z,99495.56
2022-08-03T04:48:32.552Z,99496.79
2022-08-03T04:51:28.091Z,99500.50
2022-08-03T04:54:16.231Z,99498.70
2022-08-03T04:57:08.390Z,99499.80
2022-08-03T05:00:04.272Z,99500.34
2022-08-03T05:02:56.906Z,99500.23
2022-08-03T05:05:50.926Z,99499.20
2022-08-03T05:08:46.915Z,99497.91
2022-08-03T05:11:41.753Z,99493.59
2022-08-03T05:14:34.062Z,99496.86
2022-08-03T05:17:26.948Z,99496.66
2022-08-03T05:20:19.262Z,99501.56
2022-08-03T05:23:11.605Z,99505.92
2022-08-03T05:26:04.132Z,99507.80
2022-08-03T05:28:56.405Z,99507.92
2022-08-03T05:31:48.493Z,99505.77
2022-08-03T05:34:40.958Z,99509.69
2022-08-03T05:37:32.977Z,99516.14
2022-08-03T05:40:25.513Z,99518.64
2022-08-03T05:43:19.336Z,99518.48
2022-08-03T05:46:13.179Z,99518.89
2022-08-03T05:48:54.618Z,99526.80
2022-08-03T05:51:47.527Z,99526.95
2022-08-03T05:54:56.897Z,99530.41
2022-08-03T05:57:50.197Z,99529.29
2022-08-03T06:00:42.228Z,99531.38
2022-08-03T06:03:34.242Z,99534.42
2022-08-03T06:06:30.501Z,99532.95
2022-08-03T06:09:24.318Z,99530.91
2022-08-03T06:12:36.674Z,99527.95
2022-08-03T06:15:28.910Z,99532.06
2022-08-03T06:18:21.351Z,99535.81
2022-08-03T06:21:15.198Z,99535.20
2022-08-03T06:24:00.608Z,99534.59
2022-08-03T06:26:55.013Z,99536.59
2022-08-03T06:29:47.330Z,99536.04
2022-08-03T06:32:39.789Z,99534.60
2022-08-03T06:35:32.114Z,99534.46
2022-08-03T06:38:27.129Z,99538.48
2022-08-03T06:41:20.683Z,99538.00
2022-08-03T06:44:05.768Z,99537.54
2022-08-03T06:46:58.883Z,99541.56
2022-08-03T06:50:14.295Z,99544.39
2022-08-03T06:53:04.430Z,99540.67
2022-08-03T06:55:56.975Z,99544.34
2022-08-03T06:58:49.977Z,99545.44
2022-08-03T07:01:42.275Z,99548.60
2022-08-03T07:04:34.843Z,99548.23
2022-08-03T07:07:20.824Z,99550.44
2022-08-03T07:10:13.728Z,99552.27
2022-08-03T07:12:59.908Z,99553.60
2022-08-03T07:15:55.363Z,99553.86
2022-08-03T07:18:49.309Z,99553.73
2022-08-03T07:21:41.931Z,99550.39
2022-08-03T07:24:34.086Z,99548.41
2022-08-03T07:27:30.614Z,99549.96
2022-08-03T07:30:22.815Z,99550.83
2022-08-03T07:33:16.612Z,99549.39
2022-08-03T07:36:00.763Z,99548.91
2022-08-03T07:38:53.027Z,99549.53
2022-08-03T07:41:44.041Z,99548.89
2022-08-03T07:44:36.354Z,99554.20
2022-08-03T07:47:34.942Z,99554.75
2022-08-03T07:50:28.534Z,99556.08
2022-08-03T07:53:20.589Z,99548.23
2022-08-03T07:56:13.921Z,99549.52
2022-08-03T07:59:06.282Z,99553.32
2022-08-03T08:01:58.572Z,99555.98
2022-08-03T08:04:51.028Z,99555.55
2022-08-03T08:07:43.473Z,99556.34
2022-08-03T08:10:37.944Z,99553.98
2022-08-03T08:13:22.508Z,99550.73
2022-08-03T08:15:54.564Z,99552.23
2022-08-03T08:18:26.734Z,99552.77
2022-08-03T08:21:19.390Z,99549.65
2022-08-03T08:24:18.058Z,99550.33
2022-08-03T08:27:12.553Z,99554.05
2022-08-03T08:30:11.478Z,99557.56
2022-08-03T08:33:05.153Z,99564.20
2022-08-03T08:35:57.608Z,99564.23
2022-08-03T08:38:50.216Z,99565.77
2022-08-03T08:41:45.937Z,99558.59
2022-08-03T08:44:39.597Z,99555.81
2022-08-03T08:47:51.159Z,99555.61
2022-08-03T08:50:29.788Z,99556.11
2022-08-03T08:53:17.501Z,99555.39
2022-08-03T08:56:10.693Z,99554.61
2022-08-03T08:59:04.168Z,99552.97
2022-08-03T09:02:00.146Z,99548.72
2022-08-03T09:04:52.730Z,99546.82
2022-08-03T09:07:45.807Z,99544.27
2022-08-03T09:10:38.629Z,99550.27
2022-08-03T09:13:31.626Z,99544.66
2022-08-03T09:16:24.675Z,99544.44
2022-08-03T09:19:18.172Z,99544.41
2022-08-03T09:22:10.967Z,99542.73
2022-08-03T09:25:24.199Z,99541.20
2022-08-03T09:28:58.050Z,99542.40
2022-08-03T09:31:37.066Z,99539.23
2022-08-03T09:34:29.267Z,99538.48
2022-08-03T09:37:28.075Z,99536.25
2022-08-03T09:40:40.607Z,99530.13
2022-08-03T09:43:48.475Z,99531.46
2022-08-03T09:46:52.981Z,99531.16
2022-08-03T09:49:57.319Z,99529.60
2022-08-03T09:52:52.850Z,99528.73
2022-08-03T09:56:36.493Z,99525.42
2022-08-03T09:59:05.767Z,99525.11
2022-08-03T10:02:00.078Z,99526.39
2022-08-03T10:04:53.728Z,99527.33
2022-08-03T10:07:47.033Z,99521.55
2022-08-03T10:10:45.784Z,99520.71
2022-08-03T10:13:39.453Z,99524.06
2022-08-03T10:16:37.014Z,99520.26
2022-08-03T10:19:29.167Z,99520.40
2022-08-03T10:22:23.604Z,99520.41
2022-08-03T10:25:17.537Z,99517.27
2022-08-03T10:28:14.514Z,99519.44
2022-08-03T10:31:08.556Z,99522.46
2022-08-03T10:34:03.382Z,99519.39
2022-08-03T10:37:01.316Z,99520.80
2022-08-03T10:39:57.128Z,99520.09
2022-08-03T10:42:50.934Z,99518.36
2022-08-03T10:45:35.488Z,99517.48
2022-08-03T10:48:18.922Z,99519.64
2022-08-03T10:51:12.684Z,99519.41
2022-08-03T10:54:05.239Z,99519.95
2022-08-03T10:57:20.401Z,99514.44
2022-08-03T11:00:06.474Z,99517.62
2022-08-03T11:03:09.027Z,99514.13
2022-08-03T11:06:19.182Z,99507.98
2022-08-03T11:09:21.592Z,99509.84
2022-08-03T11:12:29.924Z,99507.65
2022-08-03T11:15:36.301Z,99507.64
2022-08-03T11:18:28.977Z,99505.09
2022-08-03T11:21:21.189Z,99502.98
2022-08-03T11:24:33.182Z,99502.95
2022-08-03T11:27:27.059Z,99495.52
2022-08-03T11:30:27.583Z,99494.82
2022-08-03T11:33:32.007Z,99490.89
2022-08-03T11:36:32.345Z,99489.07
2022-08-03T11:39:38.776Z,99486.83
2022-08-03T11:42:47.422Z,99482.40
2022-08-03T11:45:40.147Z,99485.21
2022-08-03T11:48:20.696Z,99482.71
2022-08-03T11:51:25.604Z,99483.27
2022-08-03T11:54:23.048Z,99483.90
2022-08-03T11:59:01.383Z,99484.41
2022-08-03T12:00:41.533Z,99478.66
2022-08-03T12:03:36.367Z,99477.32
2022-08-03T12:06:28.662Z,99473.91
2022-08-03T12:09:21.173Z,99473.69
2022-08-03T12:12:06.838Z,99469.73
2022-08-03T12:14:59.482Z,99472.15
2022-08-03T12:17:55.983Z,99465.16
2022-08-03T12:20:51.162Z,99465.27
2022-08-03T12:23:37.704Z,99459.08
2022-08-03T12:26:32.010Z,99463.06
2022-08-03T12:29:25.955Z,99461.29
2022-08-03T12:32:19.269Z,99464.86
2022-08-03T12:35:12.218Z,99461.33
2022-08-03T12:38:04.777Z,99460.52
2022-08-03T12:41:13.781Z,99461.70
2022-08-03T12:44:08.072Z,99460.05
2022-08-03T12:47:00.647Z,99458.09
2022-08-03T12:49:54.324Z,99458.63
2022-08-03T12:52:45.226Z,99458.11
2022-08-03T12:55:57.454Z,99458.31
2022-08-03T12:58:51.572Z,99454.48
2022-08-03T13:01:54.790Z,99449.65
2022-08-03T13:04:40.552Z,99448.61
2022-08-03T13:07:45.782Z,99448.90
2022-08-03T13:10:38.339Z,99446.05
2022-08-03T13:13:44.172Z,99441.95
2022-08-03T13:16:36.430Z,99436.27
2022-08-03T13:19:29.957Z,99433.38
2022-08-03T13:22:23.687Z,99426.62
2022-08-03T13:25:07.084Z,99425.48
2022-08-03T13:28:03.219Z,99424.13
2022-08-03T13:30:58.381Z,99421.94
2022-08-03T13:33:50.528Z,99419.59
2022-08-03T13:37:07.574Z,99415.61
2022-08-03T13:39:59.443Z,99416.43
2022-08-03T13:42:52.338Z,99410.23
2022-08-03T13:45:49.390Z,99410.66
2022-08-03T13:48:43.601Z,99406.45
2022-08-03T13:51:36.040Z,99410.13
2022-08-03T13:54:27.183Z,99409.59
2022-08-03T13:58:04.604Z,99412.73
2022-08-03T14:00:32.856Z,99409.88
2022-08-03T14:03:17.685Z,99413.23
2022-08-03T14:06:10.024Z,99414.46
2022-08-03T14:09:02.717Z,99413.59
2022-08-03T14:12:07.802Z,99411.88
2022-08-03T14:15:01.523Z,99412.33
2022-08-03T14:17:54.371Z,99410.77
2022-08-03T14:20:54.268Z,99412.02
2022-08-03T14:23:48.757Z,99410.59
2022-08-03T14:26:40.909Z,99407.46
2022-08-03T14:29:33.131Z,99402.49
2022-08-03T14:32:13.790Z,99401.20
2022-08-03T14:35:07.243Z,99399.48
2022-08-03T14:37:59.278Z,99399.52
2022-08-03T14:40:52.126Z,99391.70
2022-08-03T14:44:01.579Z,99391.91
2022-08-03T14:46:54.437Z,99389.71
2022-08-03T14:50:37.035Z,99386.41
2022-08-03T14:52:58.570Z,99388.46
2022-08-03T14:55:51.921Z,99387.25
2022-08-03T14:58:44.015Z,99389.05
2022-08-03T15:02:04.342Z,99386.48
2022-08-03T15:04:48.417Z,99388.64
2022-08-03T15:07:40.627Z,99383.96
2022-08-03T15:10:15.284Z,99381.30
2022-08-03T15:13:07.316Z,99376.54
2022-08-03T15:15:59.625Z,99368.86
2022-08-03T15:18:51.811Z,99363.30
2022-08-03T15:21:46.513Z,99362.06
2022-08-03T15:24:39.645Z,99356.42
2022-08-03T15:27:31.706Z,99353.40
2022-08-03T15:30:23.919Z,99356.34
2022-08-03T15:33:16.177Z,99357.96
2022-08-03T15:36:01.287Z,99361.88
2022-08-03T15:38:54.750Z,99355.11
2022-08-03T15:41:39.594Z,99355.69
2022-08-03T15:44:32.437Z,99357.02
2022-08-03T15:47:24.639Z,99355.11
2022-08-03T15:50:09.874Z,99353.77
2022-08-03T15:53:02.150Z,99348.60
2022-08-03T15:55:54.555Z,99346.62
2022-08-03T15:59:09.483Z,99350.73
2022-08-03T16:01:59.162Z,99347.41
2022-08-03T16:04:52.319Z,99347.10
2022-08-03T16:08:04.004Z,99348.31
2022-08-03T16:10:57.135Z,99346.23
2022-08-03T16:14:13.691Z,99347.15
2022-08-03T16:17:02.471Z,99345.71
2022-08-03T16:19:55.374Z,99346.15
2022-08-03T16:22:50.882Z,99346.20
2022-08-03T16:25:49.367Z,99338.43
2022-08-03T16:28:41.623Z,99342.66
2022-08-03T16:31:33.945Z,99340.56
2022-08-03T16:34:26.108Z,99337.21
2022-08-03T16:37:37.075Z,99340.02
2022-08-03T16:40:22.793Z,99338.55
2022-08-03T16:43:17.941Z,99339.30
2022-08-03T16:46:11.194Z,99336.60
2022-08-03T16:49:03.333Z,99342.44
2022-08-03T16:51:55.887Z,99347.21
2022-08-03T16:54:52.984Z,99344.58
2022-08-03T16:57:59.710Z,99346.50
2022-08-03T17:00:51.971Z,99349.21
2022-08-03T17:04:01.819Z,99347.68
2022-08-03T17:06:56.853Z,99354.34
2022-08-03T17:09:38.774Z,99353.64
2022-08-03T17:12:22.252Z,99354.06
2022-08-03T17:15:18.819Z,99353.65
2022-08-03T17:18:17.951Z,99359.14
2022-08-03T17:21:16.965Z,99361.44
2022-08-03T17:24:19.744Z,99364.20
2022-08-03T17:28:41.834Z,99365.64
2022-08-03T17:30:21.006Z,99367.53
2022-08-03T17:33:20.219Z,99372.14
2022-08-03T17:36:08.022Z,99377.65
2022-08-03T17:39:00.912Z,99379.20
2022-08-03T17:41:55.544Z,99382.09
2022-08-03T17:44:49.097Z,99385.11
2022-08-03T17:47:43.465Z,99392.77
2022-08-03T17:50:43.794Z,99394.56
2022-08-03T17:53:44.478Z,99396.64
2022-08-03T17:56:44.635Z,99394.27
2022-08-03T17:59:50.847Z,99400.14
2022-08-03T18:02:47.596Z,99400.55
2022-08-03T18:06:10.515Z,99405.66
2022-08-03T18:08:55.921Z,99409.30
2022-08-03T18:11:44.523Z,99411.03
2022-08-03T18:14:57.140Z,99411.20
2022-08-03T18:17:55.411Z,99410.55
2022-08-03T18:20:54.730Z,99413.27
2022-08-03T18:23:51.079Z,99419.43
2022-08-03T18:26:48.479Z,99421.05
2022-08-03T18:29:36.959Z,99427.48
2022-08-03T18:32:31.095Z,99428.97
2022-08-03T18:35:26.850Z,99433.31
2022-08-03T18:38:42.838Z,99435.44
2022-08-03T18:41:44.588Z,99438.71
2022-08-03T18:44:54.193Z,99442.45
2022-08-03T18:48:00.081Z,99448.89
2022-08-03T18:51:01.004Z,99447.03
2022-08-03T18:54:03.865Z,99449.30
2022-08-03T18:57:01.064Z,99451.11
2022-08-03T19:00:00.280Z,99455.38
2022-08-03T19:03:02.529Z,99457.64
2022-08-03T19:06:08.576Z,99458.92
2022-08-03T19:09:19.603Z,99457.97
2022-08-03T19:12:30.949Z,99459.75
2022-08-03T19:15:37.100Z,99463.22
2022-08-03T19:18:43.880Z,99464.67
2022-08-03T19:21:26.415Z,99464.45
2022-08-03T19:24:23.381Z,99465.85
2022-08-03T19:27:27.150Z,99470.83
2022-08-03T19:30:39.151Z,99470.77
2022-08-03T19:33:55.721Z,99469.41
2022-08-03T19:36:49.765Z,99468.18
2022-08-03T19:39:43.500Z,99471.14
2022-08-03T19:42:41.689Z,99470.97
2022-08-03T19:46:04.832Z,99472.58
2022-08-03T19:48:58.148Z,99473.63
2022-08-03T19:52:02.950Z,99475.02
2022-08-03T19:55:02.336Z,99478.94
2022-08-03T19:57:57.338Z,99481.64
2022-08-03T20:00:49.728Z,99485.31
2022-08-03T20:03:43.466Z,99486.10
2022-08-03T20:06:36.222Z,99489.98
2022-08-03T20:09:30.500Z,99494.07
2022-08-03T20:12:13.365Z,99495.03
2022-08-03T20:15:07.263Z,99495.45
2022-08-03T20:17:56.546Z,99496.81
2022-08-03T20:20:55.801Z,99500.36
2022-08-03T20:24:00.015Z,99504.91
2022-08-03T20:26:57.962Z,99509.06
2022-08-03T20:30:04.979Z,99506.33
2022-08-03T20:32:31.453Z,99506.15
2022-08-03T20:35:24.741Z,99502.74
2022-08-03T20:38:17.605Z,99507.66
2022-08-03T20:41:12.622Z,99499.08
2022-08-03T20:44:05.463Z,99499.69
2022-08-03T20:47:00.703Z,99499.81
2022-08-03T20:49:53.911Z,99502.52
2022-08-03T20:52:49.718Z,99504.92
2022-08-03T20:55:47.641Z,99503.64
2022-08-03T20:58:50.434Z,99501.80
2022-08-03T21:01:44.367Z,99506.18
2022-08-03T21:04:37.085Z,99505.95
2022-08-03T21:08:03.948Z,99505.77
2022-08-03T21:10:52.691Z,99508.27
2022-08-03T21:13:52.206Z,99511.42
2022-08-03T21:16:48.749Z,99516.02
2022-08-03T21:19:51.871Z,99512.61
2022-08-03T21:22:47.541Z,99509.45
2022-08-03T21:25:42.799Z,99509.30
2022-08-03T21:28:36.628Z,99514.33
2022-08-03T21:31:29.065Z,99513.66
2022-08-03T21:34:12.025Z,99518.48
2022-08-03T21:36:54.575Z,99519.37
2022-08-03T21:39:50.710Z,99515.99
2022-08-03T21:42:45.624Z,99511.64
2022-08-03T21:45:45.672Z,99510.41
2022-08-03T21:48:41.675Z,99516.62
2022-08-03T21:51:36.556Z,99519.44
2022-08-03T21:54:34.832Z,99521.74
2022-08-03T21:57:30.531Z,99523.91
2022-08-03T22:00:24.337Z,99527.83
2022-08-03T22:03:17.946Z,99523.96
2022-08-03T22:06:19.614Z,99525.20
2022-08-03T22:09:12.853Z,99528.70
2022-08-03T22:12:05.905Z,99524.95
2022-08-03T22:15:01.971Z,99523.95
2022-08-03T22:17:55.517Z,99518.89
2022-08-03T22:20:53.179Z,99519.02
2022-08-03T22:23:48.271Z,99520.02
2022-08-03T22:27:05.053Z,99520.81
2022-08-03T22:29:58.319Z,99518.78
2022-08-03T22:32:44.649Z,99518.46
2022-08-03T22:35:47.450Z,99514.41
2022-08-03T22:38:42.401Z,99510.02
2022-08-03T22:41:34.777Z,99505.27
2022-08-03T22:44:27.455Z,99506.70
2022-08-03T22:47:23.065Z,99505.48
2022-08-03T22:50:31.624Z,99503.52
2022-08-03T22:53:10.977Z,99503.73
2022-08-03T22:56:04.734Z,99506.65
2022-08-03T22:58:54.063Z,99507.94
2022-08-03T23:01:48.413Z,99508.71
2022-08-03T23:04:42.397Z,99511.42
2022-08-03T23:07:38.067Z,99510.43
2022-08-03T23:10:36.867Z,99507.64
2022-08-03T23:13:32.429Z,99506.31
2022-08-03T23:16:29.345Z,99504.36
2022-08-03T23:19:28.176Z,99505.38
2022-08-03T23:22:27.686Z,99505.66
2022-08-03T23:25:22.811Z,99507.29
2022-08-03T23:28:05.660Z,99507.98
2022-08-03T23:30:59.866Z,99507.90
2022-08-03T23:34:16.474Z,99505.86
2022-08-03T23:37:10.795Z,99506.52
2022-08-03T23:40:04.865Z,99502.48
2022-08-03T23:42:59.096Z,99503.05
2022-08-03T23:45:53.096Z,99500.37
2022-08-03T23:48:48.414Z,99503.23
2022-08-03T23:51:50.801Z,99502.33
2022-08-03T23:54:54.061Z,99504.58
2022-08-03T23:58:02.163Z,99507.77
